sensor_id;sensor_type;location;lat;lon;timestamp;P1;durP1;ratioP1;P2;durP2;ratioP2
21927;SDS011;11128;51.096;17.190;2023-07-31T00:00:06;3.10;;;1.30;;
21927;SDS011;11128;51.096;17.190;2023-07-31T00:05:09;1.75;;;1.05;;
21927;SDS011;11128;51.096;17.190;2023-07-31T00:10:11;1.25;;;1.10;;
21927;SDS011;11128;51.096;17.190;2023-07-31T00:15:13;1.50;;;1.10;;
21927;SDS011;11128;51.096;17.190;2023-07-31T00:20:15;5.07;;;1.45;;
21927;SDS011;11128;51.096;17.190;2023-07-31T00:25:16;1.38;;;1.10;;
21927;SDS011;11128;51.096;17.190;2023-07-31T00:30:17;1.42;;;1.33;;
21927;SDS011;11128;51.096;17.190;2023-07-31T00:35:19;3.38;;;1.77;;
21927;SDS011;11128;51.096;17.190;2023-07-31T00:40:20;3.97;;;1.65;;
21927;SDS011;11128;51.096;17.190;2023-07-31T00:45:21;3.58;;;1.50;;
21927;SDS011;11128;51.096;17.190;2023-07-31T00:50:24;4.10;;;1.50;;
21927;SDS011;11128;51.096;17.190;2023-07-31T00:55:27;2.97;;;1.45;;
21927;SDS011;11128;51.096;17.190;2023-07-31T01:00:29;3.17;;;1.45;;
21927;SDS011;11128;51.096;17.190;2023-07-31T01:10:49;2.63;;;1.30;;
21927;SDS011;11128;51.096;17.190;2023-07-31T01:15:55;5.25;;;1.25;;
21927;SDS011;11128;51.096;17.190;2023-07-31T01:21:01;4.10;;;1.55;;
21927;SDS011;11128;51.096;17.190;2023-07-31T01:26:12;2.28;;;1.27;;
21927;SDS011;11128;51.096;17.190;2023-07-31T01:31:29;1.83;;;1.40;;
21927;SDS011;11128;51.096;17.190;2023-07-31T01:36:31;1.08;;;0.90;;
21927;SDS011;11128;51.096;17.190;2023-07-31T01:41:32;1.02;;;0.98;;
21927;SDS011;11128;51.096;17.190;2023-07-31T01:46:34;2.20;;;1.20;;
21927;SDS011;11128;51.096;17.190;2023-07-31T01:51:35;5.28;;;1.40;;
21927;SDS011;11128;51.096;17.190;2023-07-31T01:56:36;2.70;;;1.27;;
21927;SDS011;11128;51.096;17.190;2023-07-31T02:01:37;3.08;;;1.30;;
21927;SDS011;11128;51.096;17.190;2023-07-31T02:06:39;2.50;;;1.38;;
21927;SDS011;11128;51.096;17.190;2023-07-31T02:11:40;3.83;;;1.48;;
21927;SDS011;11128;51.096;17.190;2023-07-31T02:16:41;2.00;;;1.30;;
21927;SDS011;11128;51.096;17.190;2023-07-31T02:21:43;1.58;;;1.23;;
21927;SDS011;11128;51.096;17.190;2023-07-31T02:26:44;4.03;;;1.30;;
21927;SDS011;11128;51.096;17.190;2023-07-31T02:31:46;3.20;;;1.10;;
21927;SDS011;11128;51.096;17.190;2023-07-31T02:36:49;3.08;;;1.50;;
21927;SDS011;11128;51.096;17.190;2023-07-31T02:41:51;4.57;;;1.60;;
21927;SDS011;11128;51.096;17.190;2023-07-31T02:46:52;2.40;;;1.10;;
21927;SDS011;11128;51.096;17.190;2023-07-31T02:51:53;2.10;;;1.60;;
21927;SDS011;11128;51.096;17.190;2023-07-31T02:56:55;2.58;;;1.17;;
21927;SDS011;11128;51.096;17.190;2023-07-31T03:01:56;2.63;;;1.25;;
21927;SDS011;11128;51.096;17.190;2023-07-31T03:06:57;1.15;;;0.90;;
21927;SDS011;11128;51.096;17.190;2023-07-31T03:11:59;3.38;;;1.58;;
21927;SDS011;11128;51.096;17.190;2023-07-31T03:17:00;1.73;;;0.98;;
21927;SDS011;11128;51.096;17.190;2023-07-31T03:22:01;2.15;;;1.10;;
21927;SDS011;11128;51.096;17.190;2023-07-31T03:27:02;3.42;;;1.40;;
21927;SDS011;11128;51.096;17.190;2023-07-31T03:32:04;3.15;;;1.23;;
21927;SDS011;11128;51.096;17.190;2023-07-31T03:37:06;4.68;;;1.50;;
21927;SDS011;11128;51.096;17.190;2023-07-31T03:42:07;2.63;;;1.10;;
21927;SDS011;11128;51.096;17.190;2023-07-31T03:47:08;2.60;;;1.15;;
21927;SDS011;11128;51.096;17.190;2023-07-31T03:52:09;2.95;;;1.25;;
21927;SDS011;11128;51.096;17.190;2023-07-31T03:57:11;4.30;;;1.20;;
21927;SDS011;11128;51.096;17.190;2023-07-31T04:02:12;3.92;;;1.48;;
21927;SDS011;11128;51.096;17.190;2023-07-31T04:07:15;3.83;;;1.15;;
21927;SDS011;11128;51.096;17.190;2023-07-31T04:12:16;2.90;;;1.20;;
21927;SDS011;11128;51.096;17.190;2023-07-31T04:17:17;2.35;;;1.10;;
21927;SDS011;11128;51.096;17.190;2023-07-31T04:22:19;2.50;;;1.17;;
21927;SDS011;11128;51.096;17.190;2023-07-31T04:27:20;4.50;;;1.30;;
21927;SDS011;11128;51.096;17.190;2023-07-31T04:32:21;2.28;;;1.30;;
21927;SDS011;11128;51.096;17.190;2023-07-31T04:37:23;5.40;;;1.55;;
21927;SDS011;11128;51.096;17.190;2023-07-31T04:42:24;3.38;;;1.42;;
21927;SDS011;11128;51.096;17.190;2023-07-31T04:47:25;1.77;;;1.20;;
21927;SDS011;11128;51.096;17.190;2023-07-31T04:52:27;3.75;;;1.40;;
21927;SDS011;11128;51.096;17.190;2023-07-31T04:57:28;4.22;;;1.35;;
21927;SDS011;11128;51.096;17.190;2023-07-31T05:02:29;2.95;;;1.17;;
21927;SDS011;11128;51.096;17.190;2023-07-31T05:07:30;1.70;;;1.25;;
21927;SDS011;11128;51.096;17.190;2023-07-31T05:12:32;1.65;;;1.20;;
21927;SDS011;11128;51.096;17.190;2023-07-31T05:17:33;2.95;;;1.52;;
21927;SDS011;11128;51.096;17.190;2023-07-31T05:22:34;3.90;;;1.42;;
21927;SDS011;11128;51.096;17.190;2023-07-31T05:27:35;1.80;;;1.58;;
21927;SDS011;11128;51.096;17.190;2023-07-31T05:32:39;3.22;;;1.55;;
21927;SDS011;11128;51.096;17.190;2023-07-31T05:37:41;2.22;;;1.48;;
21927;SDS011;11128;51.096;17.190;2023-07-31T05:42:42;2.08;;;1.60;;
21927;SDS011;11128;51.096;17.190;2023-07-31T05:47:43;2.90;;;1.35;;
21927;SDS011;11128;51.096;17.190;2023-07-31T05:52:45;2.58;;;1.40;;
21927;SDS011;11128;51.096;17.190;2023-07-31T05:57:46;1.92;;;1.05;;
21927;SDS011;11128;51.096;17.190;2023-07-31T06:02:48;5.07;;;1.30;;
21927;SDS011;11128;51.096;17.190;2023-07-31T06:07:49;3.70;;;1.50;;
21927;SDS011;11128;51.096;17.190;2023-07-31T06:12:51;5.03;;;1.30;;
21927;SDS011;11128;51.096;17.190;2023-07-31T06:17:52;3.80;;;1.23;;
21927;SDS011;11128;51.096;17.190;2023-07-31T06:22:53;3.33;;;1.13;;
21927;SDS011;11128;51.096;17.190;2023-07-31T06:27:55;1.45;;;0.93;;
21927;SDS011;11128;51.096;17.190;2023-07-31T06:32:56;1.80;;;0.90;;
21927;SDS011;11128;51.096;17.190;2023-07-31T06:37:58;5.72;;;1.52;;
21927;SDS011;11128;51.096;17.190;2023-07-31T06:42:59;2.42;;;1.05;;
21927;SDS011;11128;51.096;17.190;2023-07-31T06:48:07;1.90;;;0.95;;
21927;SDS011;11128;51.096;17.190;2023-07-31T06:53:08;1.95;;;0.90;;
21927;SDS011;11128;51.096;17.190;2023-07-31T06:58:10;1.90;;;0.90;;
21927;SDS011;11128;51.096;17.190;2023-07-31T07:03:14;2.30;;;0.90;;
21927;SDS011;11128;51.096;17.190;2023-07-31T07:08:15;2.10;;;0.80;;
21927;SDS011;11128;51.096;17.190;2023-07-31T07:13:18;4.05;;;1.48;;
21927;SDS011;11128;51.096;17.190;2023-07-31T07:18:19;5.25;;;1.25;;
21927;SDS011;11128;51.096;17.190;2023-07-31T07:23:21;2.60;;;1.02;;
21927;SDS011;11128;51.096;17.190;2023-07-31T07:28:23;1.60;;;1.15;;
21927;SDS011;11128;51.096;17.190;2023-07-31T07:33:24;2.30;;;1.00;;
21927;SDS011;11128;51.096;17.190;2023-07-31T07:38:25;3.50;;;1.17;;
21927;SDS011;11128;51.096;17.190;2023-07-31T07:43:27;1.17;;;0.88;;
21927;SDS011;11128;51.096;17.190;2023-07-31T07:48:28;5.10;;;1.20;;
21927;SDS011;11128;51.096;17.190;2023-07-31T07:53:29;4.63;;;1.30;;
21927;SDS011;11128;51.096;17.190;2023-07-31T07:58:31;1.92;;;1.23;;
21927;SDS011;11128;51.096;17.190;2023-07-31T08:03:32;1.98;;;0.95;;
21927;SDS011;11128;51.096;17.190;2023-07-31T08:08:34;3.88;;;0.82;;
21927;SDS011;11128;51.096;17.190;2023-07-31T08:13:35;2.22;;;0.90;;
21927;SDS011;11128;51.096;17.190;2023-07-31T08:18:40;2.60;;;0.85;;
21927;SDS011;11128;51.096;17.190;2023-07-31T08:23:43;3.42;;;0.70;;
21927;SDS011;11128;51.096;17.190;2023-07-31T08:28:44;1.52;;;1.08;;
21927;SDS011;11128;51.096;17.190;2023-07-31T08:33:46;1.45;;;0.82;;
21927;SDS011;11128;51.096;17.190;2023-07-31T08:38:47;3.13;;;0.90;;
21927;SDS011;11128;51.096;17.190;2023-07-31T08:43:51;0.82;;;0.70;;
21927;SDS011;11128;51.096;17.190;2023-07-31T08:48:54;0.70;;;0.70;;
21927;SDS011;11128;51.096;17.190;2023-07-31T08:53:56;1.63;;;1.00;;
21927;SDS011;11128;51.096;17.190;2023-07-31T08:58:58;2.03;;;0.77;;
21927;SDS011;11128;51.096;17.190;2023-07-31T09:04:02;3.40;;;0.98;;
21927;SDS011;11128;51.096;17.190;2023-07-31T09:09:05;2.22;;;1.10;;
21927;SDS011;11128;51.096;17.190;2023-07-31T09:14:07;4.18;;;1.17;;
21927;SDS011;11128;51.096;17.190;2023-07-31T09:19:09;3.05;;;1.10;;
21927;SDS011;11128;51.096;17.190;2023-07-31T09:24:11;1.75;;;1.38;;
21927;SDS011;11128;51.096;17.190;2023-07-31T09:29:32;3.05;;;1.42;;
21927;SDS011;11128;51.096;17.190;2023-07-31T09:34:37;2.88;;;1.48;;
21927;SDS011;11128;51.096;17.190;2023-07-31T09:39:45;2.75;;;1.38;;
21927;SDS011;11128;51.096;17.190;2023-07-31T09:44:47;1.83;;;1.15;;
21927;SDS011;11128;51.096;17.190;2023-07-31T09:49:49;2.35;;;1.23;;
21927;SDS011;11128;51.096;17.190;2023-07-31T09:54:50;1.75;;;0.90;;
21927;SDS011;11128;51.096;17.190;2023-07-31T09:59:51;2.42;;;1.13;;
21927;SDS011;11128;51.096;17.190;2023-07-31T10:04:56;1.13;;;0.90;;
21927;SDS011;11128;51.096;17.190;2023-07-31T10:10:01;1.88;;;1.20;;
21927;SDS011;11128;51.096;17.190;2023-07-31T10:15:04;3.65;;;1.63;;
21927;SDS011;11128;51.096;17.190;2023-07-31T10:20:06;2.50;;;1.00;;
21927;SDS011;11128;51.096;17.190;2023-07-31T10:25:08;1.65;;;1.02;;
21927;SDS011;11128;51.096;17.190;2023-07-31T10:30:17;3.08;;;1.02;;
21927;SDS011;11128;51.096;17.190;2023-07-31T10:35:19;1.20;;;1.10;;
21927;SDS011;11128;51.096;17.190;2023-07-31T10:40:26;0.90;;;0.85;;
21927;SDS011;11128;51.096;17.190;2023-07-31T10:45:32;1.00;;;0.90;;
21927;SDS011;11128;51.096;17.190;2023-07-31T10:50:37;1.52;;;0.95;;
21927;SDS011;11128;51.096;17.190;2023-07-31T10:55:40;1.10;;;1.00;;
21927;SDS011;11128;51.096;17.190;2023-07-31T11:00:43;1.00;;;0.93;;
21927;SDS011;11128;51.096;17.190;2023-07-31T11:05:49;2.15;;;0.80;;
21927;SDS011;11128;51.096;17.190;2023-07-31T11:11:13;1.73;;;1.05;;
21927;SDS011;11128;51.096;17.190;2023-07-31T11:16:14;1.52;;;0.80;;
21927;SDS011;11128;51.096;17.190;2023-07-31T11:21:17;3.85;;;1.20;;
21927;SDS011;11128;51.096;17.190;2023-07-31T11:26:19;1.23;;;0.90;;
21927;SDS011;11128;51.096;17.190;2023-07-31T11:31:21;1.67;;;0.90;;
21927;SDS011;11128;51.096;17.190;2023-07-31T11:36:22;1.27;;;1.00;;
21927;SDS011;11128;51.096;17.190;2023-07-31T11:41:23;1.55;;;0.90;;
21927;SDS011;11128;51.096;17.190;2023-07-31T11:46:25;1.70;;;1.20;;
21927;SDS011;11128;51.096;17.190;2023-07-31T11:51:27;2.65;;;1.00;;
21927;SDS011;11128;51.096;17.190;2023-07-31T11:56:30;3.58;;;0.95;;
21927;SDS011;11128;51.096;17.190;2023-07-31T12:01:32;2.17;;;1.10;;
21927;SDS011;11128;51.096;17.190;2023-07-31T12:06:36;1.45;;;1.05;;
21927;SDS011;11128;51.096;17.190;2023-07-31T12:11:44;2.83;;;1.25;;
21927;SDS011;11128;51.096;17.190;2023-07-31T12:16:46;1.98;;;1.00;;
21927;SDS011;11128;51.096;17.190;2023-07-31T12:21:47;2.25;;;1.20;;
21927;SDS011;11128;51.096;17.190;2023-07-31T12:26:49;1.50;;;0.98;;
21927;SDS011;11128;51.096;17.190;2023-07-31T12:31:51;1.67;;;1.02;;
21927;SDS011;11128;51.096;17.190;2023-07-31T12:36:53;2.92;;;1.23;;
21927;SDS011;11128;51.096;17.190;2023-07-31T12:41:55;1.80;;;1.08;;
21927;SDS011;11128;51.096;17.190;2023-07-31T12:46:56;1.63;;;0.90;;
21927;SDS011;11128;51.096;17.190;2023-07-31T12:51:58;4.05;;;1.30;;
21927;SDS011;11128;51.096;17.190;2023-07-31T12:56:59;2.35;;;1.05;;
21927;SDS011;11128;51.096;17.190;2023-07-31T13:02:00;2.45;;;1.65;;
21927;SDS011;11128;51.096;17.190;2023-07-31T13:07:02;2.60;;;1.20;;
21927;SDS011;11128;51.096;17.190;2023-07-31T13:12:04;2.15;;;1.42;;
21927;SDS011;11128;51.096;17.190;2023-07-31T13:17:24;1.77;;;1.23;;
21927;SDS011;11128;51.096;17.190;2023-07-31T13:22:26;4.55;;;1.42;;
21927;SDS011;11128;51.096;17.190;2023-07-31T13:27:28;2.42;;;1.40;;
21927;SDS011;11128;51.096;17.190;2023-07-31T13:32:29;3.30;;;1.67;;
21927;SDS011;11128;51.096;17.190;2023-07-31T13:37:30;1.85;;;1.25;;
21927;SDS011;11128;51.096;17.190;2023-07-31T13:42:32;3.63;;;1.60;;
21927;SDS011;11128;51.096;17.190;2023-07-31T13:47:33;1.42;;;1.20;;
21927;SDS011;11128;51.096;17.190;2023-07-31T13:52:35;2.63;;;1.70;;
21927;SDS011;11128;51.096;17.190;2023-07-31T13:57:37;2.10;;;1.52;;
21927;SDS011;11128;51.096;17.190;2023-07-31T14:02:38;2.03;;;1.40;;
21927;SDS011;11128;51.096;17.190;2023-07-31T14:07:40;2.30;;;1.58;;
21927;SDS011;11128;51.096;17.190;2023-07-31T14:12:41;1.88;;;1.42;;
21927;SDS011;11128;51.096;17.190;2023-07-31T14:17:43;1.80;;;1.33;;
21927;SDS011;11128;51.096;17.190;2023-07-31T14:22:44;2.17;;;1.70;;
21927;SDS011;11128;51.096;17.190;2023-07-31T14:27:45;2.10;;;1.42;;
21927;SDS011;11128;51.096;17.190;2023-07-31T14:32:47;1.73;;;1.50;;
21927;SDS011;11128;51.096;17.190;2023-07-31T14:37:48;1.85;;;1.30;;
21927;SDS011;11128;51.096;17.190;2023-07-31T14:42:49;1.80;;;1.33;;
21927;SDS011;11128;51.096;17.190;2023-07-31T14:47:51;2.00;;;1.27;;
21927;SDS011;11128;51.096;17.190;2023-07-31T14:52:52;3.45;;;1.80;;
21927;SDS011;11128;51.096;17.190;2023-07-31T14:57:53;3.28;;;1.70;;
21927;SDS011;11128;51.096;17.190;2023-07-31T15:02:54;2.65;;;1.25;;
21927;SDS011;11128;51.096;17.190;2023-07-31T15:07:56;3.30;;;1.67;;
21927;SDS011;11128;51.096;17.190;2023-07-31T15:12:57;2.40;;;1.50;;
21927;SDS011;11128;51.096;17.190;2023-07-31T15:17:59;1.95;;;1.50;;
21927;SDS011;11128;51.096;17.190;2023-07-31T15:23:01;3.25;;;1.30;;
21927;SDS011;11128;51.096;17.190;2023-07-31T15:28:02;1.83;;;1.40;;
21927;SDS011;11128;51.096;17.190;2023-07-31T15:33:04;1.52;;;1.33;;
21927;SDS011;11128;51.096;17.190;2023-07-31T15:38:05;1.77;;;1.23;;
21927;SDS011;11128;51.096;17.190;2023-07-31T15:43:07;2.05;;;1.40;;
21927;SDS011;11128;51.096;17.190;2023-07-31T15:48:08;3.13;;;1.50;;
21927;SDS011;11128;51.096;17.190;2023-07-31T15:53:10;3.17;;;1.30;;
21927;SDS011;11128;51.096;17.190;2023-07-31T15:58:11;2.30;;;1.50;;
21927;SDS011;11128;51.096;17.190;2023-07-31T16:03:13;1.77;;;1.35;;
21927;SDS011;11128;51.096;17.190;2023-07-31T16:08:14;2.72;;;1.17;;
21927;SDS011;11128;51.096;17.190;2023-07-31T16:13:15;1.15;;;0.93;;
21927;SDS011;11128;51.096;17.190;2023-07-31T16:18:17;1.92;;;1.40;;
21927;SDS011;11128;51.096;17.190;2023-07-31T16:23:19;2.97;;;1.38;;
21927;SDS011;11128;51.096;17.190;2023-07-31T16:28:20;1.42;;;1.30;;
21927;SDS011;11128;51.096;17.190;2023-07-31T16:33:21;1.60;;;1.20;;
21927;SDS011;11128;51.096;17.190;2023-07-31T16:38:23;1.88;;;1.17;;
21927;SDS011;11128;51.096;17.190;2023-07-31T16:43:24;3.88;;;1.08;;
21927;SDS011;11128;51.096;17.190;2023-07-31T16:48:26;3.83;;;1.60;;
21927;SDS011;11128;51.096;17.190;2023-07-31T16:53:28;2.15;;;1.15;;
21927;SDS011;11128;51.096;17.190;2023-07-31T16:58:29;2.95;;;1.40;;
21927;SDS011;11128;51.096;17.190;2023-07-31T17:03:30;2.55;;;1.08;;
21927;SDS011;11128;51.096;17.190;2023-07-31T17:08:32;1.90;;;1.08;;
21927;SDS011;11128;51.096;17.190;2023-07-31T17:13:33;2.65;;;1.55;;
21927;SDS011;11128;51.096;17.190;2023-07-31T17:18:35;3.30;;;1.17;;
21927;SDS011;11128;51.096;17.190;2023-07-31T17:23:36;1.48;;;1.10;;
21927;SDS011;11128;51.096;17.190;2023-07-31T17:28:38;1.83;;;1.20;;
21927;SDS011;11128;51.096;17.190;2023-07-31T17:33:39;1.73;;;1.10;;
21927;SDS011;11128;51.096;17.190;2023-07-31T17:38:41;1.33;;;0.95;;
21927;SDS011;11128;51.096;17.190;2023-07-31T17:43:42;1.98;;;1.10;;
21927;SDS011;11128;51.096;17.190;2023-07-31T17:48:44;2.55;;;1.45;;
21927;SDS011;11128;51.096;17.190;2023-07-31T17:53:47;1.63;;;1.20;;
21927;SDS011;11128;51.096;17.190;2023-07-31T17:58:48;2.38;;;1.20;;
21927;SDS011;11128;51.096;17.190;2023-07-31T18:03:50;4.13;;;1.02;;
21927;SDS011;11128;51.096;17.190;2023-07-31T18:08:51;2.78;;;1.20;;
21927;SDS011;11128;51.096;17.190;2023-07-31T18:13:52;2.55;;;1.00;;
21927;SDS011;11128;51.096;17.190;2023-07-31T18:18:54;1.48;;;0.85;;
21927;SDS011;11128;51.096;17.190;2023-07-31T18:23:56;1.73;;;1.00;;
21927;SDS011;11128;51.096;17.190;2023-07-31T18:28:57;1.75;;;1.02;;
21927;SDS011;11128;51.096;17.190;2023-07-31T18:33:58;2.10;;;1.42;;
21927;SDS011;11128;51.096;17.190;2023-07-31T18:39:00;3.33;;;1.42;;
21927;SDS011;11128;51.096;17.190;2023-07-31T18:44:01;2.63;;;1.17;;
21927;SDS011;11128;51.096;17.190;2023-07-31T18:49:03;2.05;;;1.50;;
21927;SDS011;11128;51.096;17.190;2023-07-31T18:54:05;2.65;;;1.23;;
21927;SDS011;11128;51.096;17.190;2023-07-31T18:59:06;4.28;;;1.80;;
21927;SDS011;11128;51.096;17.190;2023-07-31T19:04:08;3.85;;;1.95;;
21927;SDS011;11128;51.096;17.190;2023-07-31T19:09:10;4.15;;;1.67;;
21927;SDS011;11128;51.096;17.190;2023-07-31T19:14:12;4.32;;;1.90;;
21927;SDS011;11128;51.096;17.190;2023-07-31T19:19:14;3.00;;;1.85;;
21927;SDS011;11128;51.096;17.190;2023-07-31T19:24:15;5.32;;;2.25;;
21927;SDS011;11128;51.096;17.190;2023-07-31T19:29:17;4.50;;;1.85;;
21927;SDS011;11128;51.096;17.190;2023-07-31T19:34:18;3.45;;;1.55;;
21927;SDS011;11128;51.096;17.190;2023-07-31T19:39:19;3.80;;;1.75;;
21927;SDS011;11128;51.096;17.190;2023-07-31T19:44:21;3.13;;;1.73;;
21927;SDS011;11128;51.096;17.190;2023-07-31T19:49:22;2.17;;;1.70;;
21927;SDS011;11128;51.096;17.190;2023-07-31T19:54:23;2.25;;;1.38;;
21927;SDS011;11128;51.096;17.190;2023-07-31T19:59:25;3.28;;;1.60;;
21927;SDS011;11128;51.096;17.190;2023-07-31T20:04:26;3.78;;;1.50;;
21927;SDS011;11128;51.096;17.190;2023-07-31T20:09:27;2.92;;;1.67;;
21927;SDS011;11128;51.096;17.190;2023-07-31T20:14:29;6.20;;;1.80;;
21927;SDS011;11128;51.096;17.190;2023-07-31T20:19:30;2.85;;;1.50;;
21927;SDS011;11128;51.096;17.190;2023-07-31T20:24:32;2.97;;;1.63;;
21927;SDS011;11128;51.096;17.190;2023-07-31T20:29:34;3.70;;;1.90;;
21927;SDS011;11128;51.096;17.190;2023-07-31T20:34:35;3.70;;;1.60;;
21927;SDS011;11128;51.096;17.190;2023-07-31T20:39:37;2.65;;;1.65;;
21927;SDS011;11128;51.096;17.190;2023-07-31T20:44:38;2.58;;;1.48;;
21927;SDS011;11128;51.096;17.190;2023-07-31T20:49:39;2.47;;;1.50;;
21927;SDS011;11128;51.096;17.190;2023-07-31T20:54:41;4.07;;;1.50;;
21927;SDS011;11128;51.096;17.190;2023-07-31T20:59:42;4.03;;;1.63;;
21927;SDS011;11128;51.096;17.190;2023-07-31T21:04:44;2.65;;;1.60;;
21927;SDS011;11128;51.096;17.190;2023-07-31T21:09:45;4.18;;;1.50;;
21927;SDS011;11128;51.096;17.190;2023-07-31T21:14:48;3.03;;;1.70;;
21927;SDS011;11128;51.096;17.190;2023-07-31T21:19:50;4.47;;;1.40;;
21927;SDS011;11128;51.096;17.190;2023-07-31T21:24:51;5.43;;;1.73;;
21927;SDS011;11128;51.096;17.190;2023-07-31T21:29:53;2.30;;;1.73;;
21927;SDS011;11128;51.096;17.190;2023-07-31T21:34:54;6.10;;;1.80;;
21927;SDS011;11128;51.096;17.190;2023-07-31T21:39:56;4.75;;;1.70;;
21927;SDS011;11128;51.096;17.190;2023-07-31T21:44:57;2.47;;;2.00;;
21927;SDS011;11128;51.096;17.190;2023-07-31T21:49:58;2.88;;;1.80;;
21927;SDS011;11128;51.096;17.190;2023-07-31T21:55:00;3.13;;;1.48;;
21927;SDS011;11128;51.096;17.190;2023-07-31T22:00:05;5.22;;;1.60;;
21927;SDS011;11128;51.096;17.190;2023-07-31T22:05:07;4.65;;;1.55;;
21927;SDS011;11128;51.096;17.190;2023-07-31T22:10:09;3.45;;;1.48;;
21927;SDS011;11128;51.096;17.190;2023-07-31T22:15:10;2.25;;;1.52;;
21927;SDS011;11128;51.096;17.190;2023-07-31T22:20:14;5.25;;;2.20;;
21927;SDS011;11128;51.096;17.190;2023-07-31T22:25:15;2.90;;;1.77;;
21927;SDS011;11128;51.096;17.190;2023-07-31T22:30:17;2.22;;;1.50;;
21927;SDS011;11128;51.096;17.190;2023-07-31T22:35:18;3.53;;;1.70;;
21927;SDS011;11128;51.096;17.190;2023-07-31T22:40:19;2.60;;;1.50;;
21927;SDS011;11128;51.096;17.190;2023-07-31T22:45:21;3.05;;;1.73;;
21927;SDS011;11128;51.096;17.190;2023-07-31T22:50:22;3.15;;;2.08;;
21927;SDS011;11128;51.096;17.190;2023-07-31T22:55:23;3.22;;;1.63;;
21927;SDS011;11128;51.096;17.190;2023-07-31T23:00:25;5.80;;;1.85;;
21927;SDS011;11128;51.096;17.190;2023-07-31T23:05:26;2.97;;;1.70;;
21927;SDS011;11128;51.096;17.190;2023-07-31T23:10:27;4.65;;;1.20;;
21927;SDS011;11128;51.096;17.190;2023-07-31T23:15:29;2.40;;;1.20;;
21927;SDS011;11128;51.096;17.190;2023-07-31T23:20:30;2.65;;;1.27;;
21927;SDS011;11128;51.096;17.190;2023-07-31T23:25:35;5.25;;;1.52;;
21927;SDS011;11128;51.096;17.190;2023-07-31T23:30:36;5.22;;;1.58;;
21927;SDS011;11128;51.096;17.190;2023-07-31T23:35:38;1.95;;;1.35;;
21927;SDS011;11128;51.096;17.190;2023-07-31T23:40:39;2.80;;;1.55;;
21927;SDS011;11128;51.096;17.190;2023-07-31T23:45:40;3.95;;;1.52;;
21927;SDS011;11128;51.096;17.190;2023-07-31T23:50:42;1.90;;;1.35;;
21927;SDS011;11128;51.096;17.190;2023-07-31T23:55:43;2.15;;;1.05;;
